Utica, Illinois
Current Conditions -  °F | °C
As of 5:55 PM on Monday 22 Dec 2014 (Local Time) from KVYS Reporting Station
Haze Haze  
Wind Chill: 35°   Ceiling: 500
Heat Index: 41°   Visibility: 4mi
Dew Point: 40°   Wind: 12mph
Humidity: 97%   Direction: 120°ESE
Pressure: 29.61"   Gusts: NA
Location:  41.34°N, 89.01°W
Report Text: KVYS 222355Z AUTO 12010KT 4SM BR OVC005 05/05 A2961 RMK AO2 60013 T00510046 10051 20020
Loading
Personal Weather Stations






























Interactive Weather Map New forecast layout! Learn more

10-Day Weather Forecast

Advertisements
Track Severe Weather on mobile